Time;durP1;ratioP1;P1;durP2;ratioP2;P2;SDS_P1;SDS_P2;PMS_P1;PMS_P2;Temp;Humidity;BMP_temperature;BMP_pressure;BME280_temperature;BME280_humidity;BME280_pressure;Samples;Min_cycle;Max_cycle;Signal;HPM_P1;HPM_P2
2023/03/10 00:02:26;;;;;;;5.23;1.80;;;7.90;99.90;;;;;;5028403;28;20455;-73
2023/03/10 00:04:53;;;;;;;4.13;1.87;;;7.90;99.90;;;;;;5028324;28;20455;-73
2023/03/10 00:07:20;;;;;;;2.23;1.67;;;7.90;99.90;;;;;;5038967;28;20445;-73
2023/03/10 00:09:48;;;;;;;2.20;1.73;;;7.80;99.90;;;;;;5047854;28;20446;-73
2023/03/10 00:12:15;;;;;;;3.03;2.00;;;7.70;99.90;;;;;;5034614;28;20761;-73
2023/03/10 00:14:42;;;;;;;5.20;1.90;;;7.70;99.90;;;;;;5028133;28;20424;-73
2023/03/10 00:17:09;;;;;;;2.50;1.87;;;7.80;99.90;;;;;;5027824;28;20459;-72
2023/03/10 00:19:35;;;;;;;3.27;2.00;;;7.70;99.90;;;;;;5042813;28;20824;-73
2023/03/10 00:22:02;;;;;;;1.97;1.70;;;7.60;99.90;;;;;;5047909;28;20834;-74
2023/03/10 00:24:29;;;;;;;2.90;2.33;;;7.50;99.90;;;;;;5046574;28;20504;-72
2023/03/10 00:26:57;;;;;;;2.30;1.87;;;7.30;99.90;;;;;;5044972;28;20458;-73
2023/03/10 00:29:24;;;;;;;2.37;1.63;;;7.20;99.90;;;;;;5027710;28;20452;-73
2023/03/10 00:31:51;;;;;;;4.13;1.90;;;7.20;99.90;;;;;;5027842;28;20487;-74
2023/03/10 00:34:17;;;;;;;1.60;1.37;;;7.10;99.90;;;;;;5027788;28;20519;-75
2023/03/10 00:36:44;;;;;;;1.87;1.10;;;7.50;99.90;;;;;;5027656;28;20452;-74
2023/03/10 00:39:11;;;;;;;2.07;1.30;;;7.60;99.90;;;;;;5027810;28;20451;-74
2023/03/10 00:41:38;;;;;;;2.80;1.13;;;7.80;99.90;;;;;;5032365;28;20458;-74
2023/03/10 00:44:08;;;;;;;1.73;1.30;;;7.90;99.90;;;;;;5030525;28;20463;-75
2023/03/10 00:46:37;;;;;;;1.70;1.60;;;7.90;99.90;;;;;;5030055;28;20828;-75
2023/03/10 00:49:04;;;;;;;1.30;1.10;;;8.00;99.90;;;;;;5028476;28;20956;-79
2023/03/10 00:51:31;;;;;;;2.27;1.57;;;8.00;99.90;;;;;;5027710;28;20566;-75
2023/03/10 00:53:59;;;;;;;1.10;1.00;;;8.10;99.90;;;;;;5027564;28;21108;-75
2023/03/10 00:56:26;;;;;;;1.83;1.50;;;8.00;99.90;;;;;;5027158;28;20590;-75
2023/03/10 00:58:55;;;;;;;1.40;1.30;;;8.00;99.90;;;;;;5026970;28;20958;-75
2023/03/10 01:01:26;;;;;;;1.77;1.23;;;7.90;99.90;;;;;;5026210;28;20602;-74
2023/03/10 01:03:54;;;;;;;2.20;1.40;;;8.00;99.90;;;;;;5027169;28;20469;-75
2023/03/10 01:06:21;;;;;;;1.10;1.00;;;8.00;99.90;;;;;;5027335;28;20470;-74
2023/03/10 01:08:49;;;;;;;1.53;0.90;;;8.10;99.90;;;;;;5026977;28;20456;-75
2023/03/10 01:11:16;;;;;;;1.43;1.10;;;8.10;99.90;;;;;;5026884;28;20501;-72
2023/03/10 01:13:43;;;;;;;2.27;1.63;;;7.90;99.90;;;;;;5026694;28;20470;-73
2023/03/10 01:16:10;;;;;;;1.43;1.13;;;7.70;99.90;;;;;;5026579;28;20969;-74
2023/03/10 01:18:40;;;;;;;1.27;1.10;;;7.80;99.90;;;;;;5026295;28;20455;-75
2023/03/10 01:21:07;;;;;;;1.27;1.13;;;7.90;99.90;;;;;;5026574;28;20564;-75
2023/03/10 01:23:34;;;;;;;2.07;1.67;;;7.90;99.90;;;;;;5026595;28;20503;-73
2023/03/10 01:26:01;;;;;;;1.40;1.30;;;7.80;99.90;;;;;;5026949;28;20466;-73
2023/03/10 01:28:27;;;;;;;2.70;1.27;;;7.70;99.90;;;;;;5026599;28;20454;-74
2023/03/10 01:30:54;;;;;;;3.77;1.77;;;7.60;99.90;;;;;;5026305;28;20470;-73
2023/03/10 01:33:21;;;;;;;2.80;1.40;;;7.40;99.90;;;;;;5026455;28;20455;-73
2023/03/10 01:35:49;;;;;;;2.90;1.60;;;7.40;99.90;;;;;;5025163;28;20935;-73
2023/03/10 01:38:16;;;;;;;2.13;1.37;;;7.40;99.90;;;;;;5026509;28;20447;-73
2023/03/10 01:40:48;;;;;;;8.07;1.90;;;7.20;99.90;;;;;;5026358;28;20455;-74
2023/03/10 01:43:27;;;;;;;3.13;1.47;;;7.00;99.90;;;;;;5026361;28;20455;-74
2023/03/10 01:46:30;;;;;;;6.03;1.60;;;6.90;99.90;;;;;;5026565;28;20867;-74
2023/03/10 01:49:02;;;;;;;2.90;1.50;;;6.80;99.90;;;;;;5026313;28;20546;-73
2023/03/10 01:51:33;;;;;;;2.33;2.13;;;6.80;99.90;;;;;;5024924;28;20950;-74
2023/03/10 01:54:00;;;;;;;1.57;1.43;;;6.60;99.90;;;;;;5026184;28;21006;-74
2023/03/10 01:56:27;;;;;;;4.17;1.90;;;6.60;99.90;;;;;;5026707;28;20454;-74
2023/03/10 01:58:54;;;;;;;7.13;2.47;;;6.60;99.90;;;;;;5026585;28;20453;-74
2023/03/10 02:01:21;;;;;;;2.20;2.00;;;6.50;99.90;;;;;;5026418;28;20453;-74
2023/03/10 02:03:53;;;;;;;4.00;2.07;;;6.80;99.90;;;;;;5026246;28;20459;-73
2023/03/10 02:06:21;;;;;;;2.03;1.80;;;6.80;99.90;;;;;;5026086;28;20439;-74
2023/03/10 02:08:52;;;;;;;1.50;1.40;;;6.60;99.90;;;;;;5025309;28;20475;-73
2023/03/10 02:11:20;;;;;;;4.37;1.90;;;6.50;99.90;;;;;;5026486;28;20483;-74
2023/03/10 02:13:48;;;;;;;2.13;1.80;;;6.50;99.90;;;;;;5026484;28;20470;-74
2023/03/10 02:16:16;;;;;;;4.50;1.90;;;6.40;99.90;;;;;;5026276;28;20455;-74
2023/03/10 02:18:45;;;;;;;5.07;2.47;;;6.50;99.90;;;;;;5026070;28;20467;-74
2023/03/10 02:21:20;;;;;;;2.73;1.90;;;6.40;99.90;;;;;;5025937;28;20471;-73
2023/03/10 02:23:54;;;;;;;2.23;1.73;;;6.30;99.90;;;;;;5024509;28;20866;-74
2023/03/10 02:26:29;;;;;;;2.50;1.50;;;6.40;99.90;;;;;;5026217;28;20444;-73
2023/03/10 02:29:00;;;;;;;3.40;1.90;;;6.50;99.90;;;;;;5025783;28;21163;-74
2023/03/10 02:31:29;;;;;;;1.83;1.63;;;6.40;99.90;;;;;;5025926;28;20490;-74
2023/03/10 02:33:56;;;;;;;4.60;1.80;;;6.70;99.90;;;;;;5026167;28;20955;-73
2023/03/10 02:36:24;;;;;;;3.23;1.40;;;6.40;99.90;;;;;;5026074;28;20477;-74
2023/03/10 02:38:51;;;;;;;5.40;2.00;;;6.40;99.90;;;;;;5025166;28;20466;-76
2023/03/10 02:41:22;;;;;;;4.50;2.60;;;6.40;99.90;;;;;;5026239;28;20452;-73
2023/03/10 02:43:50;;;;;;;2.40;1.63;;;6.30;99.90;;;;;;5025969;28;20451;-76
2023/03/10 02:46:18;;;;;;;4.33;1.60;;;6.20;99.90;;;;;;5026178;28;20455;-72
2023/03/10 02:48:45;;;;;;;2.90;1.20;;;6.20;99.90;;;;;;5027995;28;20452;-73
2023/03/10 02:51:16;;;;;;;2.67;1.30;;;6.00;99.90;;;;;;5029617;28;20451;-75
2023/03/10 02:53:43;;;;;;;4.60;1.40;;;6.10;99.90;;;;;;5029063;28;20450;-75
2023/03/10 02:56:10;;;;;;;4.67;1.50;;;6.10;99.90;;;;;;5009685;28;20444;-75
2023/03/10 02:58:36;;;;;;;3.97;1.73;;;5.70;99.90;;;;;;5009837;28;20459;-75
2023/03/10 03:01:04;;;;;;;1.63;1.23;;;5.80;99.90;;;;;;5009637;28;20451;-76
2023/03/10 03:03:33;;;;;;;1.50;1.30;;;5.90;99.90;;;;;;5009799;28;20460;-75
2023/03/10 03:06:00;;;;;;;2.40;1.20;;;6.00;99.90;;;;;;5009797;28;20464;-75
2023/03/10 03:08:27;;;;;;;2.97;1.30;;;5.90;99.90;;;;;;5009479;28;20456;-75
2023/03/10 03:10:54;;;;;;;2.03;1.50;;;6.00;99.90;;;;;;5020834;28;20485;-75
2023/03/10 03:13:20;;;;;;;2.73;1.40;;;5.90;99.90;;;;;;5029311;28;20490;-74
2023/03/10 03:15:47;;;;;;;3.43;1.87;;;5.90;99.90;;;;;;5028996;28;21001;-76
2023/03/10 03:18:14;;;;;;;1.80;1.03;;;5.70;99.90;;;;;;5029010;28;20485;-76
2023/03/10 03:20:42;;;;;;;3.53;1.27;;;5.70;99.90;;;;;;5028984;28;20480;-74
2023/03/10 03:23:10;;;;;;;2.20;1.30;;;5.90;99.90;;;;;;5028887;28;21005;-74
2023/03/10 03:25:39;;;;;;;1.40;1.20;;;5.90;99.90;;;;;;5028027;28;20440;-75
2023/03/10 03:28:08;;;;;;;1.07;0.93;;;5.80;99.90;;;;;;5009076;28;20459;-76
2023/03/10 03:30:35;;;;;;;1.67;1.23;;;5.80;99.90;;;;;;5009013;28;20456;-74
2023/03/10 03:33:03;;;;;;;3.90;1.30;;;6.00;99.90;;;;;;5009291;28;20492;-75
2023/03/10 03:35:32;;;;;;;1.87;1.50;;;6.00;99.90;;;;;;5009511;28;20464;-76
2023/03/10 03:38:01;;;;;;;4.97;1.20;;;6.00;99.90;;;;;;5009254;28;20457;-75
2023/03/10 03:40:30;;;;;;;4.40;1.33;;;6.10;99.90;;;;;;5008955;28;20456;-75
2023/03/10 03:42:57;;;;;;;2.80;1.10;;;6.00;99.90;;;;;;5019100;28;21107;-75
2023/03/10 03:45:26;;;;;;;1.47;1.30;;;6.20;99.90;;;;;;5028440;28;20534;-75
2023/03/10 03:47:53;;;;;;;2.90;1.27;;;5.90;99.90;;;;;;5028786;28;20451;-75
2023/03/10 03:50:21;;;;;;;1.40;1.30;;;5.80;99.90;;;;;;5028693;28;20456;-75
2023/03/10 03:52:48;;;;;;;1.40;1.30;;;5.80;99.90;;;;;;5028316;28;20517;-75
2023/03/10 03:55:18;;;;;;;1.37;1.10;;;5.90;99.90;;;;;;5028508;28;20467;-75
2023/03/10 03:57:45;;;;;;;1.40;1.30;;;5.80;99.90;;;;;;5028748;28;20972;-76
2023/03/10 04:00:16;;;;;;;1.53;1.23;;;5.80;99.90;;;;;;5027256;28;20468;-75
2023/03/10 04:02:43;;;;;;;1.73;1.60;;;5.80;99.90;;;;;;5028977;28;20446;-74
2023/03/10 04:05:10;;;;;;;1.33;1.23;;;5.90;99.90;;;;;;5028720;28;20458;-76
2023/03/10 04:07:39;;;;;;;2.10;1.90;;;6.10;99.90;;;;;;5028662;28;20462;-74
2023/03/10 04:10:08;;;;;;;2.13;1.20;;;6.20;99.90;;;;;;5028987;28;20455;-75
2023/03/10 04:12:37;;;;;;;1.33;1.23;;;6.30;99.90;;;;;;5028777;28;20483;-75
2023/03/10 04:15:04;;;;;;;2.10;1.13;;;6.40;99.90;;;;;;5028776;28;20994;-74
2023/03/10 04:17:31;;;;;;;1.33;1.23;;;6.40;99.90;;;;;;5027205;28;20529;-75
2023/03/10 04:19:58;;;;;;;1.90;1.50;;;6.50;99.90;;;;;;5028355;28;20873;-75
2023/03/10 04:22:25;;;;;;;1.90;1.20;;;6.50;99.90;;;;;;5028355;28;21031;-75
2023/03/10 04:24:52;;;;;;;1.87;1.40;;;6.70;99.90;;;;;;5029379;28;20467;-75
2023/03/10 04:27:19;;;;;;;5.93;1.17;;;6.70;99.90;;;;;;5029621;28;20570;-75
2023/03/10 04:29:48;;;;;;;1.30;1.10;;;6.90;99.90;;;;;;5028928;28;20447;-75
2023/03/10 04:32:14;;;;;;;2.23;1.20;;;7.00;99.90;;;;;;5028991;28;20483;-74
2023/03/10 04:34:41;;;;;;;3.47;1.40;;;7.30;99.90;;;;;;5027596;28;20467;-74
2023/03/10 04:37:08;;;;;;;1.10;1.00;;;7.30;99.90;;;;;;5027801;28;20980;-75
2023/03/10 04:39:36;;;;;;;3.57;1.60;;;7.60;99.90;;;;;;5028291;28;20451;-74
2023/03/10 04:42:03;;;;;;;2.40;1.00;;;7.60;99.90;;;;;;5027974;28;20448;-75
2023/03/10 04:44:30;;;;;;;1.17;0.93;;;7.50;99.90;;;;;;5027718;28;20456;-76
2023/03/10 04:46:58;;;;;;;1.40;1.27;;;7.80;99.90;;;;;;5027546;28;20481;-76
2023/03/10 04:49:25;;;;;;;2.13;1.33;;;7.80;99.90;;;;;;5027728;28;20539;-77
2023/03/10 04:51:52;;;;;;;1.20;1.10;;;7.90;99.90;;;;;;5026186;28;20558;-76
2023/03/10 04:54:19;;;;;;;1.30;1.20;;;8.00;99.90;;;;;;5027847;28;20538;-75
2023/03/10 04:56:46;;;;;;;2.03;1.37;;;8.10;99.90;;;;;;5027241;28;20446;-76
2023/03/10 04:59:13;;;;;;;1.90;1.13;;;8.20;99.90;;;;;;5027393;28;20444;-75
2023/03/10 05:01:39;;;;;;;1.30;1.20;;;8.60;99.90;;;;;;5025505;28;20840;-76
2023/03/10 05:04:08;;;;;;;2.00;1.70;;;8.80;99.90;;;;;;5008497;28;20452;-75
2023/03/10 05:06:34;;;;;;;3.20;1.53;;;8.90;99.90;;;;;;5008272;28;20492;-75
2023/03/10 05:09:03;;;;;;;1.80;1.40;;;8.80;99.90;;;;;;5022291;28;20798;-74
2023/03/10 05:11:30;;;;;;;2.63;1.20;;;8.90;99.90;;;;;;5018937;28;20982;-74
2023/03/10 05:13:57;;;;;;;2.00;1.80;;;8.80;99.90;;;;;;5008145;28;20488;-75
2023/03/10 05:16:24;;;;;;;1.93;1.30;;;8.80;99.90;;;;;;5007416;28;20824;-75
2023/03/10 05:18:51;;;;;;;1.60;1.30;;;8.80;99.90;;;;;;5007422;28;20475;-77
2023/03/10 05:21:21;;;;;;;2.03;1.10;;;8.80;99.90;;;;;;5011174;28;20516;-75
2023/03/10 05:23:48;;;;;;;2.30;1.63;;;8.80;99.90;;;;;;5007543;28;20472;-75
2023/03/10 05:26:16;;;;;;;2.33;1.30;;;8.80;99.90;;;;;;5024541;28;20463;-75
2023/03/10 05:28:43;;;;;;;2.87;1.27;;;8.80;99.90;;;;;;5027298;28;20455;-75
2023/03/10 05:31:11;;;;;;;1.53;1.23;;;8.80;99.90;;;;;;5026796;28;20998;-76
2023/03/10 05:33:39;;;;;;;1.53;1.20;;;8.80;99.90;;;;;;5012402;28;20973;-76
2023/03/10 05:36:08;;;;;;;4.40;1.40;;;8.80;99.90;;;;;;5008053;28;20468;-74
2023/03/10 05:38:37;;;;;;;2.53;1.27;;;8.80;99.90;;;;;;5008176;28;20975;-75
2023/03/10 05:41:07;;;;;;;1.67;1.47;;;8.90;99.90;;;;;;5015688;28;20455;-75
2023/03/10 05:43:33;;;;;;;2.67;1.47;;;8.80;99.90;;;;;;5026892;28;20439;-78
2023/03/10 05:46:01;;;;;;;2.00;1.07;;;8.80;99.90;;;;;;5024855;28;20626;-75
2023/03/10 05:48:28;;;;;;;1.30;1.20;;;8.80;99.90;;;;;;5021324;28;20939;-74
2023/03/10 05:50:59;;;;;;;2.00;1.50;;;8.80;99.90;;;;;;5020136;28;20841;-73
2023/03/10 05:53:26;;;;;;;1.80;1.43;;;8.70;99.90;;;;;;5033334;28;20483;-74
2023/03/10 05:55:55;;;;;;;3.37;1.30;;;8.70;99.90;;;;;;5026665;28;20444;-76
2023/03/10 05:58:22;;;;;;;1.30;1.03;;;8.70;99.90;;;;;;5025365;28;20929;-76
2023/03/10 06:00:49;;;;;;;2.03;1.70;;;8.70;99.90;;;;;;5024914;28;20467;-76
2023/03/10 06:03:16;;;;;;;1.20;1.10;;;8.80;99.90;;;;;;5026922;28;20443;-76
2023/03/10 06:05:43;;;;;;;2.10;1.60;;;8.70;99.90;;;;;;5026990;28;20448;-74
2023/03/10 06:08:10;;;;;;;2.03;1.60;;;8.60;99.90;;;;;;5038003;28;20443;-76
2023/03/10 06:10:37;;;;;;;2.00;1.37;;;8.60;99.90;;;;;;5033406;28;20480;-76
2023/03/10 06:13:05;;;;;;;5.83;1.50;;;8.60;99.90;;;;;;5025129;28;20488;-76
2023/03/10 06:15:32;;;;;;;2.53;1.80;;;8.60;99.90;;;;;;5022312;28;20985;-75
2023/03/10 06:17:59;;;;;;;3.20;1.60;;;8.70;99.90;;;;;;5026678;28;20465;-74
2023/03/10 06:20:26;;;;;;;3.33;1.50;;;8.60;99.90;;;;;;5027509;28;20982;-86
2023/03/10 06:22:53;;;;;;;1.80;1.43;;;8.70;99.90;;;;;;5049668;28;20458;-89
2023/03/10 06:25:20;;;;;;;3.80;1.65;;;8.70;99.90;;;;;;5050171;28;20943;-73
2023/03/10 06:27:47;;;;;;;3.57;1.20;;;8.80;99.90;;;;;;5049114;28;20199;-75
2023/03/10 06:30:16;;;;;;;3.73;2.63;;;8.70;99.90;;;;;;5050306;28;20454;-74
2023/03/10 06:32:43;;;;;;;1.53;1.37;;;8.80;99.90;;;;;;5033477;28;20489;-74
2023/03/10 06:35:13;;;;;;;2.43;1.60;;;8.70;99.90;;;;;;5029831;28;20450;-72
2023/03/10 06:37:40;;;;;;;1.70;1.60;;;8.70;99.90;;;;;;5030327;28;20481;-73
2023/03/10 06:40:11;;;;;;;2.73;1.43;;;8.70;99.90;;;;;;5030020;28;20443;-73
2023/03/10 06:42:39;;;;;;;1.73;1.00;;;8.70;99.90;;;;;;5030271;28;20463;-74
2023/03/10 06:45:07;;;;;;;1.43;1.10;;;8.80;99.90;;;;;;5030374;28;20497;-73
2023/03/10 06:47:36;;;;;;;1.53;1.20;;;8.80;99.90;;;;;;5030282;28;20447;-73
2023/03/10 06:50:04;;;;;;;3.40;1.50;;;8.90;99.90;;;;;;5028860;28;20891;-73
2023/03/10 06:52:33;;;;;;;2.60;1.37;;;8.80;99.90;;;;;;5033294;28;20459;-74
2023/03/10 06:55:00;;;;;;;2.20;1.77;;;8.80;99.90;;;;;;5037832;28;20443;-91
2023/03/10 06:57:27;;;;;;;2.10;1.30;;;8.80;99.90;;;;;;5043850;28;20449;-92
2023/03/10 06:59:54;;;;;;;2.40;1.40;;;8.90;99.90;;;;;;5043608;28;20439;-91
2023/03/10 07:02:21;;;;;;;1.60;1.50;;;9.10;99.90;;;;;;5030133;28;20464;-91
2023/03/10 07:04:49;;;;;;;1.47;1.27;;;9.20;99.90;;;;;;5035334;28;20523;-89
2023/03/10 07:07:16;;;;;;;4.13;1.77;;;9.10;99.90;;;;;;5051513;28;20450;-90
2023/03/10 07:09:44;;;;;;;3.70;1.47;;;9.00;99.90;;;;;;5042175;28;20439;-90
2023/03/10 07:12:11;;;;;;;4.73;1.80;;;8.90;99.90;;;;;;5041457;28;20467;-90
2023/03/10 07:14:38;;;;;;;7.03;1.50;;;9.10;99.90;;;;;;5037443;28;20568;-81
2023/03/10 07:17:05;;;;;;;3.23;1.37;;;9.20;99.90;;;;;;5031877;28;20451;-82
2023/03/10 07:19:32;;;;;;;4.20;2.13;;;9.40;99.90;;;;;;5029401;28;20566;-87
2023/03/10 07:22:00;;;;;;;2.80;1.50;;;9.50;99.90;;;;;;5030035;28;20518;-83
2023/03/10 07:24:27;;;;;;;5.00;1.83;;;9.60;99.90;;;;;;5021884;28;20467;-70
2023/03/10 07:26:53;;;;;;;3.33;1.60;;;9.60;99.90;;;;;;5011292;28;20452;-87
2023/03/10 07:29:20;;;;;;;2.77;1.50;;;9.40;99.90;;;;;;5038145;28;20473;-88
2023/03/10 07:31:47;;;;;;;2.90;1.50;;;9.30;99.90;;;;;;5038208;28;20450;-86
2023/03/10 07:34:14;;;;;;;1.97;1.30;;;9.10;99.90;;;;;;5031993;28;20513;-87
2023/03/10 07:36:41;;;;;;;2.20;1.20;;;9.10;99.90;;;;;;5028951;28;20797;-86
2023/03/10 07:39:09;;;;;;;2.43;1.20;;;9.10;99.90;;;;;;5009040;28;20851;-78
2023/03/10 07:41:36;;;;;;;4.20;1.53;;;9.30;99.90;;;;;;5014094;28;21067;-75
2023/03/10 07:44:03;;;;;;;3.90;1.70;;;9.30;99.90;;;;;;5022136;28;20483;-74
2023/03/10 07:46:30;;;;;;;3.80;2.13;;;9.30;99.90;;;;;;5028772;28;20448;-83
2023/03/10 07:48:59;;;;;;;2.30;2.10;;;9.30;99.90;;;;;;5028729;28;20464;-81
2023/03/10 07:51:26;;;;;;;3.67;1.83;;;9.30;99.90;;;;;;5028682;28;20455;-83
2023/03/10 07:53:53;;;;;;;4.70;1.50;;;9.50;99.90;;;;;;5019299;28;20487;-82
2023/03/10 07:56:21;;;;;;;3.10;1.90;;;9.50;99.90;;;;;;5033550;28;20469;-80
2023/03/10 07:58:48;;;;;;;4.80;2.30;;;9.40;99.90;;;;;;5027525;28;20473;-80
2023/03/10 08:01:17;;;;;;;2.80;1.63;;;9.50;99.90;;;;;;5026909;28;20455;-80
2023/03/10 08:03:44;;;;;;;2.30;1.50;;;9.60;99.90;;;;;;5027733;28;20458;-79
2023/03/10 08:06:17;;;;;;;1.43;1.30;;;9.70;99.90;;;;;;5027675;28;20993;-80
2023/03/10 08:08:43;;;;;;;5.60;1.73;;;9.80;99.90;;;;;;5027891;28;20509;-80
2023/03/10 08:11:10;;;;;;;1.93;1.50;;;10.00;99.90;;;;;;5028199;28;20461;-82
2023/03/10 08:13:39;;;;;;;2.03;1.30;;;9.80;99.90;;;;;;5027072;28;20482;-82
2023/03/10 08:16:07;;;;;;;3.20;2.00;;;9.90;99.90;;;;;;5027824;28;20997;-80
2023/03/10 08:18:34;;;;;;;5.23;1.80;;;9.80;99.90;;;;;;5027708;28;20455;-81
2023/03/10 08:21:04;;;;;;;2.10;1.50;;;9.80;99.90;;;;;;5018452;28;20480;-81
2023/03/10 08:23:31;;;;;;;2.37;2.13;;;10.00;99.90;;;;;;5023090;28;20492;-80
2023/03/10 08:26:30;;;;;;;1.93;1.60;;;10.20;99.90;;;;;;5025241;28;20963;-81
2023/03/10 08:28:58;;;;;;;3.43;1.77;;;10.40;99.90;;;;;;5016593;28;20483;-81
2023/03/10 08:31:25;;;;;;;4.13;2.60;;;10.30;99.90;;;;;;5025570;28;22107;-81
2023/03/10 08:33:55;;;;;;;5.30;1.80;;;10.80;99.90;;;;;;5033177;28;20682;-81
2023/03/10 08:36:24;;;;;;;6.50;2.40;;;10.90;99.90;;;;;;5027057;28;20466;-80
2023/03/10 08:38:53;;;;;;;2.43;1.60;;;11.70;99.90;;;;;;5033678;28;20975;-80
2023/03/10 08:41:22;;;;;;;4.67;2.20;;;11.80;99.90;;;;;;5035736;28;20458;-81
2023/03/10 08:43:50;;;;;;;4.80;2.23;;;11.40;99.90;;;;;;5040245;28;20478;-79
2023/03/10 08:46:20;;;;;;;1.40;1.30;;;11.20;99.90;;;;;;5033367;28;20466;-80
2023/03/10 08:48:47;;;;;;;8.03;1.97;;;11.20;99.90;;;;;;5031507;28;20464;-82
2023/03/10 08:51:14;;;;;;;2.40;1.60;;;11.30;99.90;;;;;;5035170;28;20478;-79
2023/03/10 08:53:41;;;;;;;1.93;1.50;;;11.10;99.90;;;;;;5034129;28;21070;-78
2023/03/10 08:56:08;;;;;;;3.03;1.53;;;11.40;99.90;;;;;;5036558;28;20446;-82
2023/03/10 08:58:35;;;;;;;1.50;1.40;;;11.10;99.90;;;;;;5036705;28;20443;-81
2023/03/10 09:01:02;;;;;;;2.10;1.90;;;11.40;99.90;;;;;;5033057;28;20536;-78
2023/03/10 09:03:30;;;;;;;2.03;1.70;;;11.60;99.90;;;;;;5034003;28;20842;-81
2023/03/10 09:05:58;;;;;;;2.53;1.90;;;12.20;99.90;;;;;;5035304;28;20576;-81
2023/03/10 09:08:24;;;;;;;3.33;1.93;;;13.80;99.90;;;;;;5035421;28;20538;-80
2023/03/10 09:10:51;;;;;;;3.90;2.00;;;13.80;99.90;;;;;;5035557;28;20452;-81
2023/03/10 09:13:18;;;;;;;7.53;1.63;;;13.00;99.90;;;;;;5032946;28;20460;-81
2023/03/10 09:15:45;;;;;;;1.90;1.50;;;12.80;99.90;;;;;;5033976;28;20831;-84
2023/03/10 09:18:14;;;;;;;3.80;1.97;;;13.40;99.90;;;;;;5031526;28;20468;-82
2023/03/10 09:20:43;;;;;;;4.67;2.33;;;14.20;99.90;;;;;;5028389;28;20474;-81
2023/03/10 09:23:11;;;;;;;2.00;1.40;;;14.00;99.90;;;;;;5036272;28;20545;-82
2023/03/10 09:25:39;;;;;;;3.97;1.73;;;13.60;99.90;;;;;;5032584;28;20934;-82
2023/03/10 09:28:06;;;;;;;8.07;2.90;;;13.10;99.90;;;;;;5038199;28;20454;-84
2023/03/10 09:30:36;;;;;;;2.90;1.57;;;13.00;99.90;;;;;;5035259;28;20462;-86
2023/03/10 09:33:03;;;;;;;2.67;2.30;;;14.00;99.90;;;;;;5036379;28;20542;-83
2023/03/10 09:35:29;;;;;;;3.97;2.30;;;15.20;99.90;;;;;;5037491;28;20838;-84
2023/03/10 09:37:58;;;;;;;6.20;2.30;;;13.80;99.90;;;;;;5036891;28;20454;-83
2023/03/10 09:40:25;;;;;;;3.10;1.83;;;13.90;99.90;;;;;;5031990;28;20868;-83
2023/03/10 09:42:57;;;;;;;3.53;1.60;;;13.90;99.90;;;;;;5031249;28;20458;-83
2023/03/10 09:45:33;;;;;;;2.10;1.30;;;13.80;99.90;;;;;;5028454;28;20439;-83
2023/03/10 09:48:13;;;;;;;3.23;1.77;;;13.40;99.90;;;;;;5034055;28;20451;-84
2023/03/10 09:50:43;;;;;;;2.50;1.60;;;13.30;99.90;;;;;;5037096;28;20442;-84
2023/03/10 09:53:38;;;;;;;9.90;1.40;;;13.10;99.90;;;;;;5038262;28;20452;-84
2023/03/10 09:56:12;;;;;;;1.30;1.20;;;13.00;99.90;;;;;;5039796;28;20782;-85
2023/03/10 09:58:41;;;;;;;2.80;1.33;;;12.80;99.90;;;;;;5040401;28;20471;-87
2023/03/10 10:01:16;;;;;;;3.20;1.50;;;12.70;99.90;;;;;;5037308;28;20546;-86
2023/03/10 10:03:46;;;;;;;1.83;1.23;;;12.80;99.90;;;;;;5032309;28;20447;-85
2023/03/10 10:06:19;;;;;;;1.10;1.00;;;12.60;99.90;;;;;;5029698;28;20542;-86
2023/03/10 10:08:53;;;;;;;2.33;1.67;;;12.40;99.90;;;;;;5033972;28;20482;-85
2023/03/10 10:11:20;;;;;;;2.07;1.87;;;12.20;99.90;;;;;;5035403;28;20895;-85
2023/03/10 10:13:47;;;;;;;5.87;2.80;;;12.00;99.90;;;;;;5032965;28;20974;-88
2023/03/10 10:16:28;;;;;;;3.23;1.37;;;11.40;99.90;;;;;;5028602;28;20496;-86
2023/03/10 10:19:02;;;;;;;1.50;1.40;;;10.90;99.90;;;;;;5037169;28;20455;-87
2023/03/10 10:21:38;;;;;;;2.10;1.20;;;10.60;99.90;;;;;;5031767;28;20457;-85
2023/03/10 10:24:07;;;;;;;4.20;1.10;;;10.40;99.90;;;;;;5012765;28;20479;-85
2023/03/10 10:26:33;;;;;;;0.80;0.80;;;10.00;99.90;;;;;;5032690;28;20943;-89
2023/03/10 10:29:05;;;;;;;1.50;1.00;;;10.00;99.90;;;;;;5035529;28;20520;-85
2023/03/10 10:31:33;;;;;;;1.70;0.93;;;10.00;99.90;;;;;;5036014;28;20790;-87
2023/03/10 10:34:02;;;;;;;2.20;0.80;;;9.90;99.90;;;;;;5039407;28;20483;-87
2023/03/10 10:36:31;;;;;;;1.53;0.80;;;9.80;99.90;;;;;;5031749;28;20467;-88
2023/03/10 10:38:59;;;;;;;3.53;0.83;;;9.70;99.90;;;;;;5033537;28;20459;-81
2023/03/10 10:44:13;;;;;;;1.43;0.80;;;8.90;99.90;;;;;;6061768;22;20390;-81
2023/03/10 10:46:51;;;;;;;0.80;0.70;;;8.10;99.90;;;;;;5055161;28;20565;-84
2023/03/10 10:49:24;;;;;;;2.80;1.03;;;9.10;99.90;;;;;;5034905;28;20454;-86
2023/03/10 10:51:59;;;;;;;1.50;0.63;;;8.60;99.90;;;;;;5033367;28;20436;-88
2023/03/10 10:54:29;;;;;;;1.50;0.90;;;8.50;99.90;;;;;;5049779;28;21032;-86
2023/03/10 10:56:57;;;;;;;1.00;0.63;;;8.60;99.90;;;;;;5046067;28;20817;-90
2023/03/10 10:59:30;;;;;;;1.40;0.90;;;8.80;99.90;;;;;;5040317;28;20546;-87
2023/03/10 11:01:58;;;;;;;0.90;0.73;;;9.00;99.90;;;;;;5036341;28;20451;-89
2023/03/10 11:04:27;;;;;;;0.77;0.67;;;8.90;99.90;;;;;;5037643;28;20461;-88
2023/03/10 11:07:09;;;;;;;0.80;0.60;;;8.90;99.90;;;;;;5036729;28;20446;-88
2023/03/10 11:09:37;;;;;;;0.70;0.70;;;8.90;99.90;;;;;;5040434;28;20792;-88
2023/03/10 11:12:09;;;;;;;1.63;0.77;;;8.90;99.90;;;;;;5043270;28;20449;-89
2023/03/10 11:14:56;;;;;;;1.40;0.90;;;9.10;99.90;;;;;;5043337;28;20490;-89
2023/03/10 11:17:28;;;;;;;1.40;1.13;;;9.10;99.90;;;;;;5050699;28;20504;-77
2023/03/10 11:20:05;;;;;;;1.10;0.87;;;9.30;99.90;;;;;;5049525;28;20470;-86
2023/03/10 11:22:39;;;;;;;9.27;1.20;;;9.20;99.90;;;;;;5050347;28;20475;-88
2023/03/10 11:25:18;;;;;;;1.73;0.97;;;9.20;99.90;;;;;;5049475;28;20519;-76
2023/03/10 11:27:54;;;;;;;4.20;1.00;;;9.00;99.90;;;;;;5050266;28;20450;-85
2023/03/10 11:30:28;;;;;;;1.03;0.80;;;9.30;99.90;;;;;;5048241;28;20490;-86
2023/03/10 11:33:19;;;;;;;1.00;0.80;;;10.00;99.90;;;;;;5049501;28;20604;-85
2023/03/10 11:35:48;;;;;;;1.33;0.90;;;11.70;99.90;;;;;;5049326;28;20589;-81
2023/03/10 11:38:33;;;;;;;2.03;0.87;;;12.70;99.90;;;;;;5048660;28;20539;-83
2023/03/10 11:41:05;;;;;;;2.33;0.90;;;13.40;99.90;;;;;;5049017;28;20451;-82
2023/03/10 11:43:45;;;;;;;3.03;0.80;;;12.70;99.90;;;;;;5048981;28;21053;-85
2023/03/10 11:46:21;;;;;;;2.60;1.13;;;13.40;99.90;;;;;;5047961;28;20485;-85
2023/03/10 11:48:56;;;;;;;5.13;1.13;;;13.20;99.90;;;;;;5047927;28;20555;-85
2023/03/10 11:51:30;;;;;;;1.23;0.83;;;12.90;99.90;;;;;;5050242;28;20826;-86
2023/03/10 11:53:58;;;;;;;2.03;0.80;;;13.40;99.90;;;;;;5059091;28;20541;-85
2023/03/10 11:56:28;;;;;;;3.90;1.27;;;13.10;99.90;;;;;;5050174;28;20493;-85
2023/03/10 11:58:57;;;;;;;0.90;0.73;;;13.30;99.90;;;;;;5049193;28;20465;-87
2023/03/10 12:01:30;;;;;;;2.53;0.93;;;15.30;99.90;;;;;;5048129;28;20629;-85
2023/03/10 12:04:06;;;;;;;1.23;0.90;;;14.90;99.90;;;;;;5048042;28;20466;-88
2023/03/10 12:06:37;;;;;;;0.90;0.70;;;13.30;99.90;;;;;;5049515;28;20469;-85
2023/03/10 12:09:06;;;;;;;1.53;0.70;;;13.80;99.90;;;;;;5049051;28;20481;-88
2023/03/10 12:11:35;;;;;;;0.80;0.70;;;12.20;99.90;;;;;;5049871;28;20460;-89
2023/03/10 12:14:02;;;;;;;1.00;0.90;;;12.90;99.90;;;;;;5047898;28;20450;-86
2023/03/10 12:16:36;;;;;;;1.43;0.90;;;13.40;99.90;;;;;;5048110;28;20498;-86
2023/03/10 12:19:04;;;;;;;0.80;0.60;;;12.70;99.90;;;;;;5048289;28;20734;-88
2023/03/10 12:21:32;;;;;;;0.83;0.73;;;12.20;99.90;;;;;;5048129;28;20455;-86
2023/03/10 12:24:01;;;;;;;1.47;1.00;;;12.00;99.90;;;;;;5048664;28;20450;-88
2023/03/10 12:27:03;;;;;;;1.23;0.90;;;12.00;99.90;;;;;;5043558;28;20469;-88
2023/03/10 12:29:41;;;;;;;1.00;0.80;;;12.10;99.90;;;;;;5047345;28;20446;-90
2023/03/10 12:32:46;;;;;;;1.77;0.80;;;11.70;99.90;;;;;;5047954;28;20477;-88
2023/03/10 12:35:43;;;;;;;1.33;0.90;;;11.60;99.90;;;;;;5048967;28;20540;-87
2023/03/10 12:38:30;;;;;;;1.00;0.77;;;12.00;99.90;;;;;;5050816;28;20535;-87
2023/03/10 12:40:57;;;;;;;1.83;0.70;;;12.40;99.90;;;;;;5042279;28;20966;-90
2023/03/10 12:43:56;;;;;;;0.90;0.80;;;12.30;99.90;;;;;;5046158;28;21045;-88
2023/03/10 12:46:49;;;;;;;0.83;0.70;;;12.20;99.90;;;;;;4967223;28;20465;-88
2023/03/10 12:49:31;;;;;;;0.97;0.70;;;12.90;99.90;;;;;;5015103;28;20840;-89
2023/03/10 12:52:15;;;;;;;4.10;0.97;;;12.20;99.90;;;;;;5033836;28;20455;-89
2023/03/10 12:54:53;;;;;;;1.53;0.83;;;11.70;99.90;;;;;;5032532;28;20937;-88
2023/03/10 12:57:28;;;;;;;0.70;0.63;;;12.30;99.90;;;;;;5048475;28;20460;-87
2023/03/10 13:00:05;;;;;;;1.00;0.70;;;12.70;99.90;;;;;;5050282;28;20457;-86
2023/03/10 13:02:43;;;;;;;1.83;0.70;;;12.30;99.90;;;;;;5049368;28;20511;-91
2023/03/10 13:05:20;;;;;;;1.47;0.90;;;13.20;99.90;;;;;;5048833;28;20473;-86
2023/03/10 13:07:50;;;;;;;1.30;0.70;;;13.20;99.90;;;;;;5050393;28;20453;-88
2023/03/10 13:10:20;;;;;;;1.20;0.93;;;13.80;99.90;;;;;;5049011;28;20533;-91